sensor_id;sensor_type;location;lat;lon;timestamp;pressure;altitude;pressure_sealevel;temperature;humidity
3096;BME280;1558;42.700;23.360;2023-09-07T00:01:06;95768.47;;;22.17;93.26
3096;BME280;1558;42.700;23.360;2023-09-07T00:03:35;95759.03;;;22.11;93.60
3096;BME280;1558;42.700;23.360;2023-09-07T00:06:10;95770.44;;;22.16;93.92
3096;BME280;1558;42.700;23.360;2023-09-07T00:08:38;95773.97;;;22.13;94.00
3096;BME280;1558;42.700;23.360;2023-09-07T00:11:07;95770.81;;;22.11;94.49
3096;BME280;1558;42.700;23.360;2023-09-07T00:13:36;95769.25;;;22.07;95.24
3096;BME280;1558;42.700;23.360;2023-09-07T00:16:04;95683.31;;;21.46;95.32
3096;BME280;1558;42.700;23.360;2023-09-07T00:18:33;95774.38;;;21.98;96.05
3096;BME280;1558;42.700;23.360;2023-09-07T00:21:01;95771.59;;;21.94;96.69
3096;BME280;1558;42.700;23.360;2023-09-07T00:23:30;95771.59;;;21.94;97.14
3096;BME280;1558;42.700;23.360;2023-09-07T00:25:58;95770.06;;;21.86;97.02
3096;BME280;1558;42.700;23.360;2023-09-07T00:28:26;95775.91;;;21.81;98.14
3096;BME280;1558;42.700;23.360;2023-09-07T00:30:55;95762.16;;;21.71;98.43
3096;BME280;1558;42.700;23.360;2023-09-07T00:33:23;95769.22;;;21.75;98.97
3096;BME280;1558;42.700;23.360;2023-09-07T00:35:51;95777.88;;;21.70;100.00
3096;BME280;1558;42.700;23.360;2023-09-07T00:38:20;95758.22;;;21.43;100.00
3096;BME280;1558;42.700;23.360;2023-09-07T00:40:49;95695.41;;;21.14;100.00
3096;BME280;1558;42.700;23.360;2023-09-07T00:43:18;95774.31;;;21.59;100.00
3096;BME280;1558;42.700;23.360;2023-09-07T00:45:46;95778.59;;;21.56;100.00
3096;BME280;1558;42.700;23.360;2023-09-07T00:48:15;95738.56;;;21.31;100.00
3096;BME280;1558;42.700;23.360;2023-09-07T00:50:44;95764.88;;;21.53;100.00
3096;BME280;1558;42.700;23.360;2023-09-07T00:53:12;95771.94;;;21.43;100.00
3096;BME280;1558;42.700;23.360;2023-09-07T00:55:40;95779.78;;;21.45;100.00
3096;BME280;1558;42.700;23.360;2023-09-07T00:58:10;95760.53;;;21.34;100.00
3096;BME280;1558;42.700;23.360;2023-09-07T01:00:39;95729.88;;;21.11;100.00
3096;BME280;1558;42.700;23.360;2023-09-07T01:03:08;95768.38;;;21.36;100.00
3096;BME280;1558;42.700;23.360;2023-09-07T01:05:43;95755.03;;;21.31;100.00
3096;BME280;1558;42.700;23.360;2023-09-07T01:08:19;95771.53;;;21.45;100.00
3096;BME280;1558;42.700;23.360;2023-09-07T01:10:48;95762.13;;;21.42;100.00
3096;BME280;1558;42.700;23.360;2023-09-07T01:13:18;95748.78;;;21.41;100.00
3096;BME280;1558;42.700;23.360;2023-09-07T01:15:46;95767.63;;;21.53;100.00
3096;BME280;1558;42.700;23.360;2023-09-07T01:18:15;95780.56;;;21.45;100.00
3096;BME280;1558;42.700;23.360;2023-09-07T01:20:52;95765.25;;;21.37;100.00
3096;BME280;1558;42.700;23.360;2023-09-07T01:23:22;95773.09;;;21.42;100.00
3096;BME280;1558;42.700;23.360;2023-09-07T01:25:51;95756.59;;;21.35;100.00
3096;BME280;1558;42.700;23.360;2023-09-07T01:28:20;95770.34;;;21.35;100.00
3096;BME280;1558;42.700;23.360;2023-09-07T01:30:48;95766.78;;;21.35;100.00
3096;BME280;1558;42.700;23.360;2023-09-07T01:33:19;95753.84;;;21.25;100.00
3096;BME280;1558;42.700;23.360;2023-09-07T01:35:47;95767.97;;;21.30;100.00
3096;BME280;1558;42.700;23.360;2023-09-07T01:38:16;95774.63;;;21.33;100.00
3096;BME280;1558;42.700;23.360;2023-09-07T01:40:45;95765.63;;;21.32;100.00
3096;BME280;1558;42.700;23.360;2023-09-07T01:43:13;95766.00;;;21.31;100.00
3096;BME280;1558;42.700;23.360;2023-09-07T01:45:41;95760.13;;;21.29;100.00
3096;BME280;1558;42.700;23.360;2023-09-07T01:48:12;95714.94;;;21.02;100.00
3096;BME280;1558;42.700;23.360;2023-09-07T01:50:40;95742.88;;;21.18;100.00
3096;BME280;1558;42.700;23.360;2023-09-07T01:53:08;95755.41;;;21.26;100.00
3096;BME280;1558;42.700;23.360;2023-09-07T01:55:36;95772.28;;;21.35;100.00
3096;BME280;1558;42.700;23.360;2023-09-07T01:58:06;95770.72;;;21.34;100.00
3096;BME280;1558;42.700;23.360;2023-09-07T02:00:36;95778.59;;;21.39;100.00
3096;BME280;1558;42.700;23.360;2023-09-07T02:03:05;95725.59;;;21.10;100.00
3096;BME280;1558;42.700;23.360;2023-09-07T02:05:33;95767.22;;;21.37;100.00
3096;BME280;1558;42.700;23.360;2023-09-07T02:08:02;95723.63;;;21.11;100.00
3096;BME280;1558;42.700;23.360;2023-09-07T02:10:30;95759.72;;;21.30;100.00
3096;BME280;1558;42.700;23.360;2023-09-07T02:12:58;95704.38;;;20.97;100.00
3096;BME280;1558;42.700;23.360;2023-09-07T02:15:28;95766.41;;;21.33;100.00
3096;BME280;1558;42.700;23.360;2023-09-07T02:17:56;95757.38;;;21.29;100.00
3096;BME280;1558;42.700;23.360;2023-09-07T02:20:24;95758.94;;;21.26;100.00
3096;BME280;1558;42.700;23.360;2023-09-07T02:22:52;95767.59;;;21.32;100.00
3096;BME280;1558;42.700;23.360;2023-09-07T02:25:20;95767.59;;;21.32;100.00
3096;BME280;1558;42.700;23.360;2023-09-07T02:27:48;95772.69;;;21.33;100.00
3096;BME280;1558;42.700;23.360;2023-09-07T02:30:17;95765.63;;;21.32;100.00
3096;BME280;1558;42.700;23.360;2023-09-07T02:32:46;95761.28;;;21.21;100.00
3096;BME280;1558;42.700;23.360;2023-09-07T02:35:14;95770.31;;;21.18;100.00
3096;BME280;1558;42.700;23.360;2023-09-07T02:37:43;95755.72;;;21.03;100.00
3096;BME280;1558;42.700;23.360;2023-09-07T02:40:11;95750.56;;;20.94;100.00
3096;BME280;1558;42.700;23.360;2023-09-07T02:42:39;95773.06;;;21.18;100.00
3096;BME280;1558;42.700;23.360;2023-09-07T02:45:10;95776.16;;;21.16;100.00
3096;BME280;1558;42.700;23.360;2023-09-07T02:47:38;95765.16;;;21.06;100.00
3096;BME280;1558;42.700;23.360;2023-09-07T02:53:28;95776.56;;;21.15;100.00
3096;BME280;1558;42.700;23.360;2023-09-07T02:55:56;95774.22;;;21.13;100.00
3096;BME280;1558;42.700;23.360;2023-09-07T02:58:24;95771.38;;;21.03;100.00
3096;BME280;1558;42.700;23.360;2023-09-07T03:00:53;95711.69;;;20.61;100.00
3096;BME280;1558;42.700;23.360;2023-09-07T03:03:21;95754.88;;;20.88;100.00
3096;BME280;1558;42.700;23.360;2023-09-07T03:05:50;95777.25;;;20.94;100.00
3096;BME280;1558;42.700;23.360;2023-09-07T03:08:18;95775.69;;;20.97;100.00
3096;BME280;1558;42.700;23.360;2023-09-07T03:10:47;95774.94;;;21.03;100.00
3096;BME280;1558;42.700;23.360;2023-09-07T03:13:15;95783.94;;;21.04;100.00
3096;BME280;1558;42.700;23.360;2023-09-07T03:15:44;95786.66;;;21.00;100.00
3096;BME280;1558;42.700;23.360;2023-09-07T03:18:12;95772.94;;;21.00;100.00
3096;BME280;1558;42.700;23.360;2023-09-07T03:20:40;95773.34;;;20.99;100.00
3096;BME280;1558;42.700;23.360;2023-09-07T03:24:22;95766.94;;;20.73;100.00
3096;BME280;1558;42.700;23.360;2023-09-07T03:26:33;95785.81;;;20.82;100.00
3096;BME280;1558;42.700;23.360;2023-09-07T03:29:02;95777.56;;;20.78;100.00
3096;BME280;1558;42.700;23.360;2023-09-07T03:31:31;95780.69;;;20.77;100.00
3096;BME280;1558;42.700;23.360;2023-09-07T03:33:59;95760.25;;;20.60;100.00
3096;BME280;1558;42.700;23.360;2023-09-07T03:36:27;95780.25;;;20.71;100.00
3096;BME280;1558;42.700;23.360;2023-09-07T03:38:56;95783.00;;;20.68;100.00
3096;BME280;1558;42.700;23.360;2023-09-07T03:41:24;95783.75;;;20.68;100.00
3096;BME280;1558;42.700;23.360;2023-09-07T03:43:58;95698.06;;;20.10;100.00
3096;BME280;1558;42.700;23.360;2023-09-07T03:46:26;95769.97;;;20.54;100.00
3096;BME280;1558;42.700;23.360;2023-09-07T03:48:54;95757.75;;;20.38;100.00
3096;BME280;1558;42.700;23.360;2023-09-07T03:51:22;95792.72;;;20.55;100.00
3096;BME280;1558;42.700;23.360;2023-09-07T03:53:50;95792.75;;;20.58;100.00
3096;BME280;1558;42.700;23.360;2023-09-07T03:56:18;95793.50;;;20.55;100.00
3096;BME280;1558;42.700;23.360;2023-09-07T03:58:46;95775.78;;;20.42;100.00
3096;BME280;1558;42.700;23.360;2023-09-07T04:01:15;95793.06;;;20.46;100.00
3096;BME280;1558;42.700;23.360;2023-09-07T04:03:44;95806.38;;;20.44;100.00
3096;BME280;1558;42.700;23.360;2023-09-07T04:06:12;95780.38;;;20.24;100.00
3096;BME280;1558;42.700;23.360;2023-09-07T04:08:40;95811.84;;;20.44;100.00
3096;BME280;1558;42.700;23.360;2023-09-07T04:11:08;95811.06;;;20.44;100.00
3096;BME280;1558;42.700;23.360;2023-09-07T04:13:36;95806.72;;;20.39;100.00
3096;BME280;1558;42.700;23.360;2023-09-07T04:16:04;95778.34;;;20.21;100.00
3096;BME280;1558;42.700;23.360;2023-09-07T04:18:33;95812.94;;;20.36;100.00
3096;BME280;1558;42.700;23.360;2023-09-07T04:21:05;95803.97;;;20.43;100.00
3096;BME280;1558;42.700;23.360;2023-09-07T04:23:33;95808.69;;;20.42;100.00
3096;BME280;1558;42.700;23.360;2023-09-07T04:26:09;95806.38;;;20.48;100.00
3096;BME280;1558;42.700;23.360;2023-09-07T04:28:38;95817.69;;;20.39;100.00
3096;BME280;1558;42.700;23.360;2023-09-07T04:31:06;95806.41;;;20.55;100.00
3096;BME280;1558;42.700;23.360;2023-09-07T04:33:36;95768.75;;;20.45;100.00
3096;BME280;1558;42.700;23.360;2023-09-07T04:36:08;95813.56;;;20.73;100.00
3096;BME280;1558;42.700;23.360;2023-09-07T04:38:37;95779.00;;;20.55;100.00
3096;BME280;1558;42.700;23.360;2023-09-07T04:41:07;95815.94;;;20.75;100.00
3096;BME280;1558;42.700;23.360;2023-09-07T04:43:37;95776.53;;;20.32;100.00
3096;BME280;1558;42.700;23.360;2023-09-07T04:46:07;95809.59;;;20.60;100.00
3096;BME280;1558;42.700;23.360;2023-09-07T04:48:36;95819.75;;;20.60;100.00
3096;BME280;1558;42.700;23.360;2023-09-07T04:51:05;95797.25;;;20.33;100.00
3096;BME280;1558;42.700;23.360;2023-09-07T04:53:35;95825.22;;;20.56;100.00
3096;BME280;1558;42.700;23.360;2023-09-07T04:56:07;95826.84;;;20.61;100.00
3096;BME280;1558;42.700;23.360;2023-09-07T04:58:36;95823.34;;;20.71;100.00
3096;BME280;1558;42.700;23.360;2023-09-07T05:01:05;95795.41;;;20.44;100.00
3096;BME280;1558;42.700;23.360;2023-09-07T05:03:37;95834.66;;;20.62;100.00
3096;BME280;1558;42.700;23.360;2023-09-07T05:06:07;95826.00;;;20.53;100.00
3096;BME280;1558;42.700;23.360;2023-09-07T05:08:35;95824.31;;;20.38;100.00
3096;BME280;1558;42.700;23.360;2023-09-07T05:11:04;95780.66;;;20.12;100.00
3096;BME280;1558;42.700;23.360;2023-09-07T05:13:32;95829.78;;;20.38;100.00
3096;BME280;1558;42.700;23.360;2023-09-07T05:16:00;95830.94;;;20.34;100.00
3096;BME280;1558;42.700;23.360;2023-09-07T05:18:28;95834.06;;;20.32;100.00
3096;BME280;1558;42.700;23.360;2023-09-07T05:20:59;95832.53;;;20.35;100.00
3096;BME280;1558;42.700;23.360;2023-09-07T05:23:27;95794.41;;;20.19;100.00
3096;BME280;1558;42.700;23.360;2023-09-07T05:25:55;95833.03;;;20.54;100.00
3096;BME280;1558;42.700;23.360;2023-09-07T05:28:23;95841.66;;;20.56;100.00
3096;BME280;1558;42.700;23.360;2023-09-07T05:30:51;95843.19;;;20.50;100.00
3096;BME280;1558;42.700;23.360;2023-09-07T05:33:19;95831.09;;;20.55;100.00
3096;BME280;1558;42.700;23.360;2023-09-07T05:35:48;95839.34;;;20.58;100.00
3096;BME280;1558;42.700;23.360;2023-09-07T05:38:18;95745.81;;;20.12;100.00
3096;BME280;1558;42.700;23.360;2023-09-07T05:40:46;95837.84;;;20.71;100.00
3096;BME280;1558;42.700;23.360;2023-09-07T05:43:17;95829.94;;;20.59;100.00
3096;BME280;1558;42.700;23.360;2023-09-07T05:45:45;95842.13;;;20.65;100.00
3096;BME280;1558;42.700;23.360;2023-09-07T05:48:13;95840.22;;;20.76;100.00
3096;BME280;1558;42.700;23.360;2023-09-07T05:50:43;95844.19;;;20.86;100.00
3096;BME280;1558;42.700;23.360;2023-09-07T05:53:12;95841.84;;;20.84;100.00
3096;BME280;1558;42.700;23.360;2023-09-07T05:55:41;95845.75;;;20.83;100.00
3096;BME280;1558;42.700;23.360;2023-09-07T05:58:09;95835.22;;;20.89;100.00
3096;BME280;1558;42.700;23.360;2023-09-07T06:00:37;95839.19;;;20.99;100.00
3096;BME280;1558;42.700;23.360;2023-09-07T06:03:07;95847.16;;;21.28;100.00
3096;BME280;1558;42.700;23.360;2023-09-07T06:05:36;95839.03;;;21.53;100.00
3096;BME280;1558;42.700;23.360;2023-09-07T06:08:06;95839.16;;;22.34;100.00
3096;BME280;1558;42.700;23.360;2023-09-07T06:10:34;95839.94;;;23.71;100.00
3096;BME280;1558;42.700;23.360;2023-09-07T06:13:04;95838.63;;;24.48;100.00
3096;BME280;1558;42.700;23.360;2023-09-07T06:15:32;95823.75;;;24.82;95.54
3096;BME280;1558;42.700;23.360;2023-09-07T06:18:00;95841.06;;;25.20;89.06
3096;BME280;1558;42.700;23.360;2023-09-07T06:20:28;95848.00;;;25.69;87.46
3096;BME280;1558;42.700;23.360;2023-09-07T06:22:56;95827.06;;;25.68;83.33
3096;BME280;1558;42.700;23.360;2023-09-07T06:25:24;95840.41;;;25.43;79.52
3096;BME280;1558;42.700;23.360;2023-09-07T06:27:54;95852.81;;;25.62;79.78
3096;BME280;1558;42.700;23.360;2023-09-07T06:30:23;95852.41;;;25.93;76.88
3096;BME280;1558;42.700;23.360;2023-09-07T06:32:51;95833.66;;;26.04;76.08
3096;BME280;1558;42.700;23.360;2023-09-07T06:35:20;95864.38;;;26.13;74.50
3096;BME280;1558;42.700;23.360;2023-09-07T06:37:48;95840.53;;;25.32;74.00
3096;BME280;1558;42.700;23.360;2023-09-07T06:40:17;95853.81;;;25.48;75.39
3096;BME280;1558;42.700;23.360;2023-09-07T06:42:45;95831.59;;;25.55;74.65
3096;BME280;1558;42.700;23.360;2023-09-07T06:45:14;95856.44;;;25.85;72.33
3096;BME280;1558;42.700;23.360;2023-09-07T06:47:43;95850.78;;;25.96;72.38
3096;BME280;1558;42.700;23.360;2023-09-07T06:50:11;95829.19;;;25.57;70.51
3096;BME280;1558;42.700;23.360;2023-09-07T06:52:42;95859.16;;;25.62;71.82
3096;BME280;1558;42.700;23.360;2023-09-07T06:55:13;95855.41;;;25.45;72.15
3096;BME280;1558;42.700;23.360;2023-09-07T06:57:41;95834.81;;;24.75;72.52
3096;BME280;1558;42.700;23.360;2023-09-07T07:00:10;95851.16;;;25.00;74.58
3096;BME280;1558;42.700;23.360;2023-09-07T07:02:39;95850.88;;;25.25;74.14
3096;BME280;1558;42.700;23.360;2023-09-07T07:05:09;95844.53;;;25.28;73.66
3096;BME280;1558;42.700;23.360;2023-09-07T07:07:37;95845.91;;;26.03;73.04
3096;BME280;1558;42.700;23.360;2023-09-07T07:10:06;95839.28;;;27.17;69.66
3096;BME280;1558;42.700;23.360;2023-09-07T07:12:38;95834.50;;;27.17;65.39
3096;BME280;1558;42.700;23.360;2023-09-07T07:15:07;95779.88;;;26.98;65.35
3096;BME280;1558;42.700;23.360;2023-09-07T07:17:37;95839.25;;;27.60;63.17
3096;BME280;1558;42.700;23.360;2023-09-07T07:20:07;95832.81;;;27.63;60.57
3096;BME280;1558;42.700;23.360;2023-09-07T07:22:36;95831.34;;;27.58;59.34
3096;BME280;1558;42.700;23.360;2023-09-07T07:25:05;95851.47;;;26.53;61.90
3096;BME280;1558;42.700;23.360;2023-09-07T07:27:33;95816.03;;;26.22;61.91
3096;BME280;1558;42.700;23.360;2023-09-07T07:30:01;95858.03;;;25.86;63.10
3096;BME280;1558;42.700;23.360;2023-09-07T07:32:29;95861.53;;;25.90;64.10
3096;BME280;1558;42.700;23.360;2023-09-07T07:34:57;95864.88;;;26.05;63.41
3096;BME280;1558;42.700;23.360;2023-09-07T07:37:26;95839.47;;;25.57;62.99
3096;BME280;1558;42.700;23.360;2023-09-07T07:39:56;95790.41;;;25.34;63.75
3096;BME280;1558;42.700;23.360;2023-09-07T07:42:24;95829.09;;;25.64;63.47
3096;BME280;1558;42.700;23.360;2023-09-07T07:44:52;95864.03;;;25.81;62.93
3096;BME280;1558;42.700;23.360;2023-09-07T07:47:20;95871.06;;;25.55;63.85
3096;BME280;1558;42.700;23.360;2023-09-07T07:49:48;95863.09;;;25.61;64.48
3096;BME280;1558;42.700;23.360;2023-09-07T07:52:17;95864.78;;;25.51;65.58
3096;BME280;1558;42.700;23.360;2023-09-07T07:54:45;95824.81;;;25.26;64.93
3096;BME280;1558;42.700;23.360;2023-09-07T07:57:14;95858.69;;;25.67;64.56
3096;BME280;1558;42.700;23.360;2023-09-07T07:59:42;95865.91;;;25.58;64.01
3096;BME280;1558;42.700;23.360;2023-09-07T08:02:10;95854.06;;;25.57;64.73
3096;BME280;1558;42.700;23.360;2023-09-07T08:04:38;95867.25;;;25.76;64.92
3096;BME280;1558;42.700;23.360;2023-09-07T08:07:07;95804.50;;;25.43;63.87
3096;BME280;1558;42.700;23.360;2023-09-07T08:09:35;95873.50;;;26.10;60.28
3096;BME280;1558;42.700;23.360;2023-09-07T08:12:04;95852.28;;;26.00;60.33
3096;BME280;1558;42.700;23.360;2023-09-07T08:14:34;95850.75;;;26.26;59.03
3096;BME280;1558;42.700;23.360;2023-09-07T08:17:03;95838.44;;;26.77;59.21
3096;BME280;1558;42.700;23.360;2023-09-07T08:19:31;95854.25;;;27.42;55.83
3096;BME280;1558;42.700;23.360;2023-09-07T08:21:59;95849.75;;;27.48;55.63
3096;BME280;1558;42.700;23.360;2023-09-07T08:24:30;95840.94;;;27.53;53.82
3096;BME280;1558;42.700;23.360;2023-09-07T08:26:58;95852.44;;;27.72;54.35
3096;BME280;1558;42.700;23.360;2023-09-07T08:29:27;95842.75;;;27.01;53.93
3096;BME280;1558;42.700;23.360;2023-09-07T08:32:00;95792.69;;;26.69;54.81
3096;BME280;1558;42.700;23.360;2023-09-07T08:34:28;95851.25;;;28.08;53.25
3096;BME280;1558;42.700;23.360;2023-09-07T08:36:58;95846.22;;;28.03;52.12
3096;BME280;1558;42.700;23.360;2023-09-07T08:39:27;95794.94;;;27.92;51.14
3096;BME280;1558;42.700;23.360;2023-09-07T08:41:56;95841.25;;;27.75;52.11
3096;BME280;1558;42.700;23.360;2023-09-07T08:44:29;95798.59;;;26.48;53.33
3096;BME280;1558;42.700;23.360;2023-09-07T08:46:59;95844.22;;;27.06;53.25
3096;BME280;1558;42.700;23.360;2023-09-07T08:49:30;95848.19;;;27.47;53.20
3096;BME280;1558;42.700;23.360;2023-09-07T08:52:00;95797.56;;;27.43;52.37
3096;BME280;1558;42.700;23.360;2023-09-07T08:54:28;95844.47;;;27.74;50.97
3096;BME280;1558;42.700;23.360;2023-09-07T08:56:57;95840.59;;;28.07;49.86
3096;BME280;1558;42.700;23.360;2023-09-07T08:59:26;95841.44;;;28.04;49.89
3096;BME280;1558;42.700;23.360;2023-09-07T09:01:57;95838.63;;;28.72;48.94
3096;BME280;1558;42.700;23.360;2023-09-07T09:04:27;95833.09;;;29.17;48.59
3096;BME280;1558;42.700;23.360;2023-09-07T09:06:56;95828.28;;;29.46;47.28
3096;BME280;1558;42.700;23.360;2023-09-07T09:09:25;95836.13;;;29.22;47.98
3096;BME280;1558;42.700;23.360;2023-09-07T09:11:54;95838.81;;;29.26;47.34
3096;BME280;1558;42.700;23.360;2023-09-07T09:14:22;95840.97;;;28.57;49.50
3096;BME280;1558;42.700;23.360;2023-09-07T09:16:50;95836.78;;;29.26;46.88
3096;BME280;1558;42.700;23.360;2023-09-07T09:19:19;95833.44;;;29.60;46.59
3096;BME280;1558;42.700;23.360;2023-09-07T09:21:48;95821.53;;;30.13;44.55
3096;BME280;1558;42.700;23.360;2023-09-07T09:24:17;95815.94;;;30.39;44.77
3096;BME280;1558;42.700;23.360;2023-09-07T09:26:45;95816.09;;;30.82;43.99
3096;BME280;1558;42.700;23.360;2023-09-07T09:29:13;95813.19;;;31.41;43.19
3096;BME280;1558;42.700;23.360;2023-09-07T09:31:42;95803.19;;;31.75;42.42
3096;BME280;1558;42.700;23.360;2023-09-07T09:34:11;95817.44;;;31.46;41.26
3096;BME280;1558;42.700;23.360;2023-09-07T09:36:41;95819.97;;;30.85;42.38
3096;BME280;1558;42.700;23.360;2023-09-07T09:39:21;95815.81;;;29.79;43.35
3096;BME280;1558;42.700;23.360;2023-09-07T09:41:50;95818.06;;;29.97;43.92
3096;BME280;1558;42.700;23.360;2023-09-07T09:44:20;95812.38;;;30.00;44.21
3096;BME280;1558;42.700;23.360;2023-09-07T09:46:49;95796.63;;;29.56;44.14
3096;BME280;1558;42.700;23.360;2023-09-07T09:49:20;95785.00;;;29.04;44.41
3096;BME280;1558;42.700;23.360;2023-09-07T09:51:49;95802.09;;;28.57;45.85
3096;BME280;1558;42.700;23.360;2023-09-07T09:54:20;95802.28;;;28.66;45.97
3096;BME280;1558;42.700;23.360;2023-09-07T09:56:49;95795.41;;;28.39;47.21
3096;BME280;1558;42.700;23.360;2023-09-07T09:59:17;95801.56;;;28.46;46.58
3096;BME280;1558;42.700;23.360;2023-09-07T10:01:47;95759.78;;;28.05;46.39
3096;BME280;1558;42.700;23.360;2023-09-07T10:04:18;95808.41;;;28.58;46.78
3096;BME280;1558;42.700;23.360;2023-09-07T10:06:56;95794.97;;;28.56;46.92
3096;BME280;1558;42.700;23.360;2023-09-07T10:09:32;95800.69;;;29.39;45.30
3096;BME280;1558;42.700;23.360;2023-09-07T10:12:01;95778.41;;;30.05;44.43
3096;BME280;1558;42.700;23.360;2023-09-07T10:14:38;95788.81;;;30.64;42.97
3096;BME280;1558;42.700;23.360;2023-09-07T10:17:06;95790.47;;;30.40;42.81
3096;BME280;1558;42.700;23.360;2023-09-07T10:20:03;95788.22;;;29.31;44.02
3096;BME280;1558;42.700;23.360;2023-09-07T10:22:33;95786.44;;;28.79;44.94
3096;BME280;1558;42.700;23.360;2023-09-07T10:25:22;95790.91;;;28.61;44.98
3096;BME280;1558;42.700;23.360;2023-09-07T10:27:50;95749.09;;;28.19;45.04
3096;BME280;1558;42.700;23.360;2023-09-07T10:30:19;95789.22;;;27.99;46.47
3096;BME280;1558;42.700;23.360;2023-09-07T10:32:50;95786.13;;;28.13;46.43
3096;BME280;1558;42.700;23.360;2023-09-07T10:35:19;95787.06;;;27.90;46.34
3096;BME280;1558;42.700;23.360;2023-09-07T10:37:49;95785.28;;;28.00;46.31
3096;BME280;1558;42.700;23.360;2023-09-07T10:40:22;95770.66;;;27.96;46.34
3096;BME280;1558;42.700;23.360;2023-09-07T10:43:01;95762.19;;;28.03;47.01
3096;BME280;1558;42.700;23.360;2023-09-07T10:45:29;95776.03;;;27.51;47.56
3096;BME280;1558;42.700;23.360;2023-09-07T10:47:57;95773.28;;;27.31;48.04
3096;BME280;1558;42.700;23.360;2023-09-07T10:50:25;95787.41;;;27.37;48.27
3096;BME280;1558;42.700;23.360;2023-09-07T10:52:53;95731.94;;;27.40;48.37
3096;BME280;1558;42.700;23.360;2023-09-07T10:55:23;95781.38;;;28.62;45.65
3096;BME280;1558;42.700;23.360;2023-09-07T10:57:54;95743.25;;;28.62;45.81
3096;BME280;1558;42.700;23.360;2023-09-07T11:00:23;95763.22;;;29.15;45.56
3096;BME280;1558;42.700;23.360;2023-09-07T11:02:51;95768.34;;;29.45;45.06
3096;BME280;1558;42.700;23.360;2023-09-07T11:05:19;95748.94;;;29.29;44.40
3096;BME280;1558;42.700;23.360;2023-09-07T11:07:48;95773.34;;;28.80;45.11
3096;BME280;1558;42.700;23.360;2023-09-07T11:10:16;95759.06;;;28.65;46.34
3096;BME280;1558;42.700;23.360;2023-09-07T11:12:46;95780.03;;;28.50;45.75
3096;BME280;1558;42.700;23.360;2023-09-07T11:15:14;95760.56;;;27.70;47.00
3096;BME280;1558;42.700;23.360;2023-09-07T11:17:42;95753.06;;;27.50;48.34
3096;BME280;1558;42.700;23.360;2023-09-07T11:20:13;95772.13;;;27.48;48.23
3096;BME280;1558;42.700;23.360;2023-09-07T11:22:42;95769.78;;;27.27;48.66
3096;BME280;1558;42.700;23.360;2023-09-07T11:25:34;95749.91;;;27.13;49.59
3096;BME280;1558;42.700;23.360;2023-09-07T11:28:05;95742.16;;;27.43;49.41
3096;BME280;1558;42.700;23.360;2023-09-07T11:30:33;95759.78;;;28.05;48.30
3096;BME280;1558;42.700;23.360;2023-09-07T11:33:03;95742.50;;;28.30;47.78
3096;BME280;1558;42.700;23.360;2023-09-07T11:35:32;95759.38;;;28.67;47.57
3096;BME280;1558;42.700;23.360;2023-09-07T11:38:00;95739.63;;;28.17;47.34
3096;BME280;1558;42.700;23.360;2023-09-07T11:40:32;95758.28;;;28.33;47.77
3096;BME280;1558;42.700;23.360;2023-09-07T11:43:00;95761.59;;;28.28;48.12
3096;BME280;1558;42.700;23.360;2023-09-07T11:45:29;95760.13;;;28.23;48.11
3096;BME280;1558;42.700;23.360;2023-09-07T11:47:59;95765.72;;;28.68;47.30
3096;BME280;1558;42.700;23.360;2023-09-07T11:50:27;95762.78;;;28.59;46.45
3096;BME280;1558;42.700;23.360;2023-09-07T11:52:56;95760.19;;;28.52;46.27
3096;BME280;1558;42.700;23.360;2023-09-07T11:55:24;95721.91;;;27.63;47.26
3096;BME280;1558;42.700;23.360;2023-09-07T11:57:53;95743.50;;;27.35;47.01
3096;BME280;1558;42.700;23.360;2023-09-07T12:00:21;95748.06;;;27.45;47.62
3096;BME280;1558;42.700;23.360;2023-09-07T12:02:50;95721.19;;;27.23;47.79
3096;BME280;1558;42.700;23.360;2023-09-07T12:05:18;95702.19;;;27.05;48.33
3096;BME280;1558;42.700;23.360;2023-09-07T12:07:46;95744.06;;;27.46;48.01
3096;BME280;1558;42.700;23.360;2023-09-07T12:10:15;95732.63;;;27.44;47.46
3096;BME280;1558;42.700;23.360;2023-09-07T12:12:43;95630.00;;;26.57;47.80
3096;BME280;1558;42.700;23.360;2023-09-07T12:15:11;95681.59;;;26.67;47.82
3096;BME280;1558;42.700;23.360;2023-09-07T12:17:40;95746.41;;;27.28;47.92
3096;BME280;1558;42.700;23.360;2023-09-07T12:20:10;95744.91;;;27.43;47.86
3096;BME280;1558;42.700;23.360;2023-09-07T12:22:41;95743.78;;;27.41;47.63
3096;BME280;1558;42.700;23.360;2023-09-07T12:25:09;95734.47;;;27.67;48.10
3096;BME280;1558;42.700;23.360;2023-09-07T12:27:41;95730.44;;;28.36;46.52
3096;BME280;1558;42.700;23.360;2023-09-07T12:30:21;95731.41;;;29.03;45.30
3096;BME280;1558;42.700;23.360;2023-09-07T12:32:51;95729.06;;;29.02;44.85
3096;BME280;1558;42.700;23.360;2023-09-07T12:35:21;95731.44;;;28.58;45.31
3096;BME280;1558;42.700;23.360;2023-09-07T12:40:58;95714.66;;;28.17;46.13
3096;BME280;1558;42.700;23.360;2023-09-07T12:43:26;95727.00;;;28.00;46.00
3096;BME280;1558;42.700;23.360;2023-09-07T12:45:54;95720.53;;;27.87;46.31
3096;BME280;1558;42.700;23.360;2023-09-07T12:48:23;95730.84;;;27.70;46.64
3096;BME280;1558;42.700;23.360;2023-09-07T12:50:53;95687.63;;;27.73;46.88
3096;BME280;1558;42.700;23.360;2023-09-07T12:53:21;95635.63;;;27.44;46.58
3096;BME280;1558;42.700;23.360;2023-09-07T12:55:52;95743.97;;;27.86;46.55
3096;BME280;1558;42.700;23.360;2023-09-07T12:58:22;95700.75;;;27.17;46.86
3096;BME280;1558;42.700;23.360;2023-09-07T13:00:50;95701.59;;;27.33;46.79
3096;BME280;1558;42.700;23.360;2023-09-07T13:03:19;95739.59;;;27.52;46.68
3096;BME280;1558;42.700;23.360;2023-09-07T13:05:47;95740.94;;;27.44;47.35
3096;BME280;1558;42.700;23.360;2023-09-07T13:08:17;95722.41;;;27.41;47.44
3096;BME280;1558;42.700;23.360;2023-09-07T13:10:47;95749.88;;;27.52;46.64
3096;BME280;1558;42.700;23.360;2023-09-07T13:13:15;95751.69;;;27.42;46.76
3096;BME280;1558;42.700;23.360;2023-09-07T13:15:44;95745.91;;;27.33;47.05
3096;BME280;1558;42.700;23.360;2023-09-07T13:18:12;95754.69;;;27.12;47.25
3096;BME280;1558;42.700;23.360;2023-09-07T13:23:37;95751.69;;;27.03;47.12
3096;BME280;1558;42.700;23.360;2023-09-07T13:26:05;95724.75;;;27.23;46.75
3096;BME280;1558;42.700;23.360;2023-09-07T13:28:33;95741.75;;;27.61;46.61